createdAt,value
2024-04-30T00:00:27.004Z,9.29
2024-04-30T00:02:53.532Z,9.29
2024-04-30T00:05:20.026Z,9.31
2024-04-30T00:07:46.551Z,9.30
2024-04-30T00:10:13.089Z,9.25
2024-04-30T00:12:40.430Z,9.17
2024-04-30T00:15:07.102Z,9.15
2024-04-30T00:17:33.780Z,9.18
2024-04-30T00:20:00.583Z,9.11
2024-04-30T00:22:27.541Z,9.06
2024-04-30T00:24:54.057Z,9.05
2024-04-30T00:27:20.515Z,9.05
2024-04-30T00:29:47.393Z,9.08
2024-04-30T00:32:13.897Z,9.12
2024-04-30T00:34:41.952Z,9.06
2024-04-30T00:37:08.494Z,9.05
2024-04-30T00:39:34.936Z,9.07
2024-04-30T00:42:01.395Z,9.08
2024-04-30T00:44:27.836Z,9.08
2024-04-30T00:46:54.393Z,9.02
2024-04-30T00:49:20.915Z,8.98
2024-04-30T00:51:47.957Z,8.99
2024-04-30T00:54:16.102Z,8.99
2024-04-30T00:56:43.390Z,8.95
2024-04-30T00:59:09.846Z,8.95
2024-04-30T01:01:36.981Z,8.95
2024-04-30T01:04:03.597Z,8.97
2024-04-30T01:06:30.134Z,9.00
2024-04-30T01:08:56.605Z,8.96
2024-04-30T01:11:23.169Z,8.95
2024-04-30T01:13:49.667Z,9.01
2024-04-30T01:16:16.205Z,9.07
2024-04-30T01:18:42.688Z,9.10
2024-04-30T01:21:09.138Z,9.07
2024-04-30T01:23:35.585Z,9.03
2024-04-30T01:26:02.067Z,9.04
2024-04-30T01:28:28.559Z,9.03
2024-04-30T01:30:55.049Z,9.02
2024-04-30T01:33:21.583Z,9.00
2024-04-30T01:35:48.130Z,8.96
2024-04-30T01:38:15.232Z,9.00
2024-04-30T01:40:41.704Z,8.99
2024-04-30T01:43:08.243Z,9.00
2024-04-30T01:45:34.775Z,9.10
2024-04-30T01:48:01.388Z,9.10
2024-04-30T01:50:27.885Z,9.09
2024-04-30T01:52:54.360Z,9.05
2024-04-30T01:55:20.820Z,9.05
2024-04-30T01:57:47.270Z,9.05
2024-04-30T02:00:14.052Z,9.08
2024-04-30T02:02:40.570Z,9.11
2024-04-30T02:05:13.401Z,9.15
2024-04-30T02:07:43.467Z,9.15
2024-04-30T02:10:10.202Z,9.19
2024-04-30T02:12:36.684Z,9.15
2024-04-30T02:15:03.269Z,9.15
2024-04-30T02:17:30.111Z,9.15
2024-04-30T02:19:56.695Z,9.13
2024-04-30T02:22:23.176Z,9.05
2024-04-30T02:24:49.695Z,9.08
2024-04-30T02:27:16.159Z,9.04
2024-04-30T02:29:42.611Z,9.00
2024-04-30T02:32:27.730Z,9.00
2024-04-30T02:34:54.291Z,9.03
2024-04-30T02:37:21.001Z,9.05
2024-04-30T02:39:47.496Z,9.03
2024-04-30T02:42:13.943Z,9.05
2024-04-30T02:44:40.402Z,9.01
2024-04-30T02:47:07.019Z,9.00
2024-04-30T02:49:33.576Z,8.98
2024-04-30T02:52:00.106Z,8.97
2024-04-30T02:54:26.601Z,8.97
2024-04-30T02:56:53.073Z,8.96
2024-04-30T02:59:19.520Z,9.02
2024-04-30T03:01:46.179Z,9.02
2024-04-30T03:04:12.822Z,9.01
2024-04-30T03:06:39.634Z,8.94
2024-04-30T03:09:06.146Z,8.93
2024-04-30T03:11:32.657Z,8.92
2024-04-30T03:13:59.179Z,8.93
2024-04-30T03:16:25.662Z,8.93
2024-04-30T03:18:52.194Z,8.91
2024-04-30T03:21:18.680Z,8.94
2024-04-30T03:23:45.143Z,8.85
2024-04-30T03:26:11.604Z,8.75
2024-04-30T03:28:38.169Z,8.74
2024-04-30T03:31:10.949Z,8.68
2024-04-30T03:33:37.559Z,8.68
2024-04-30T03:36:04.395Z,8.68
2024-04-30T03:38:30.848Z,8.65
2024-04-30T03:40:57.311Z,8.59
2024-04-30T03:43:23.848Z,8.58
2024-04-30T03:45:50.305Z,8.57
2024-04-30T03:48:16.829Z,8.64
2024-04-30T03:50:44.280Z,8.59
2024-04-30T03:53:10.766Z,8.52
2024-04-30T03:55:37.295Z,8.49
2024-04-30T03:58:03.992Z,8.61
2024-04-30T04:00:30.490Z,8.54
2024-04-30T04:02:56.952Z,8.47
2024-04-30T04:05:23.480Z,8.45
2024-04-30T04:07:51.173Z,8.49
2024-04-30T04:10:17.736Z,8.45
2024-04-30T04:13:02.724Z,8.48
2024-04-30T04:15:29.192Z,8.43
2024-04-30T04:17:55.762Z,8.47
2024-04-30T04:20:22.248Z,8.42
2024-04-30T04:22:49.285Z,8.48
2024-04-30T04:25:15.762Z,8.48
2024-04-30T04:27:42.237Z,8.46
2024-04-30T04:30:08.833Z,8.44
2024-04-30T04:32:35.426Z,8.42
2024-04-30T04:35:01.948Z,8.40
2024-04-30T04:37:28.410Z,8.41
2024-04-30T04:39:54.955Z,8.45
2024-04-30T04:42:21.487Z,8.46
2024-04-30T04:44:47.964Z,8.47
2024-04-30T04:47:14.433Z,8.58
2024-04-30T04:49:41.049Z,8.67
2024-04-30T04:52:07.544Z,8.77
2024-04-30T04:54:34.137Z,8.89
2024-04-30T04:57:00.708Z,8.97
2024-04-30T04:59:27.151Z,9.09
2024-04-30T05:01:54.605Z,9.23
2024-04-30T05:04:21.463Z,9.39
2024-04-30T05:06:50.164Z,9.56
2024-04-30T05:09:17.014Z,9.74
2024-04-30T05:11:43.475Z,9.94
2024-04-30T05:14:09.929Z,10.11
2024-04-30T05:16:36.492Z,10.30
2024-04-30T05:19:03.026Z,10.62
2024-04-30T05:21:29.742Z,10.77
2024-04-30T05:23:56.214Z,11.01
2024-04-30T05:26:22.690Z,11.24
2024-04-30T05:28:49.209Z,11.47
2024-04-30T05:31:15.687Z,11.76
2024-04-30T05:33:42.228Z,12.00
2024-04-30T05:36:08.765Z,12.36
2024-04-30T05:38:35.231Z,12.62
2024-04-30T05:41:01.840Z,13.09
2024-04-30T05:43:28.390Z,13.41
2024-04-30T05:45:54.874Z,13.79
2024-04-30T05:48:21.327Z,14.13
2024-04-30T05:50:47.811Z,14.16
2024-04-30T05:53:14.331Z,14.07
2024-04-30T05:55:41.012Z,14.04
2024-04-30T05:58:07.640Z,14.01
2024-04-30T06:00:34.168Z,13.88
2024-04-30T06:03:03.808Z,13.63
2024-04-30T06:05:30.897Z,13.59
2024-04-30T06:07:57.445Z,13.65
2024-04-30T06:10:25.271Z,13.58
2024-04-30T06:12:52.078Z,13.69
2024-04-30T06:15:18.627Z,13.48
2024-04-30T06:17:45.146Z,13.29
2024-04-30T06:20:11.649Z,13.31
2024-04-30T06:22:38.148Z,13.39
2024-04-30T06:25:05.272Z,13.78
2024-04-30T06:27:31.807Z,14.21
2024-04-30T06:29:58.310Z,14.73
2024-04-30T06:32:24.800Z,15.18
2024-04-30T06:34:52.546Z,15.43
2024-04-30T06:37:19.079Z,15.82
2024-04-30T06:39:45.546Z,16.61
2024-04-30T06:42:11.985Z,17.02
2024-04-30T06:44:38.461Z,17.40
2024-04-30T06:47:04.939Z,17.80
2024-04-30T06:49:31.439Z,18.24
2024-04-30T06:51:57.924Z,18.90
2024-04-30T06:54:24.360Z,19.08
2024-04-30T06:56:50.868Z,19.06
2024-04-30T06:59:17.344Z,19.32
2024-04-30T07:01:43.911Z,19.00
2024-04-30T07:04:11.306Z,19.56
2024-04-30T07:06:37.878Z,19.19
2024-04-30T07:09:04.374Z,19.65
2024-04-30T07:11:30.898Z,19.70
2024-04-30T07:13:57.384Z,19.45
2024-04-30T07:16:23.904Z,19.73
2024-04-30T07:18:50.393Z,20.11
2024-04-30T07:21:16.869Z,20.16
2024-04-30T07:23:43.325Z,20.40
2024-04-30T07:26:09.776Z,20.20
2024-04-30T07:28:36.261Z,19.87
2024-04-30T07:31:02.864Z,19.93
2024-04-30T07:33:29.396Z,19.68
2024-04-30T07:35:55.957Z,19.94
2024-04-30T07:38:22.435Z,19.92
2024-04-30T07:40:48.973Z,19.68
2024-04-30T07:43:15.468Z,20.17
2024-04-30T07:45:41.940Z,19.99
2024-04-30T07:48:08.622Z,20.00
2024-04-30T07:50:35.149Z,20.35
2024-04-30T07:53:01.624Z,19.50
2024-04-30T07:55:28.129Z,18.89
2024-04-30T07:57:54.595Z,18.85
2024-04-30T08:00:21.194Z,19.31
2024-04-30T08:02:47.701Z,19.34
2024-04-30T08:05:14.207Z,19.66
2024-04-30T08:07:40.775Z,19.40
2024-04-30T08:10:07.692Z,19.67
2024-04-30T08:12:34.145Z,20.24
2024-04-30T08:15:01.219Z,20.59
2024-04-30T08:17:27.770Z,20.74
2024-04-30T08:19:54.381Z,20.97
2024-04-30T08:22:20.953Z,21.01
2024-04-30T08:24:47.532Z,20.97
2024-04-30T08:27:14.064Z,20.69
2024-04-30T08:29:41.718Z,20.59
2024-04-30T08:32:08.685Z,20.51
2024-04-30T08:34:35.257Z,20.77
2024-04-30T08:37:01.814Z,21.05
2024-04-30T08:39:28.275Z,21.02
2024-04-30T08:41:56.696Z,20.70
2024-04-30T08:44:24.374Z,20.79
2024-04-30T08:46:52.353Z,21.17
2024-04-30T08:49:28.624Z,21.37
2024-04-30T08:52:04.096Z,21.55
2024-04-30T08:54:33.778Z,21.70
2024-04-30T08:57:00.336Z,21.93
2024-04-30T08:59:26.890Z,22.06
2024-04-30T09:01:54.938Z,21.88
2024-04-30T09:04:23.594Z,22.10
2024-04-30T09:06:51.222Z,22.02
2024-04-30T09:09:17.770Z,22.23
2024-04-30T09:11:44.409Z,22.15
2024-04-30T09:14:10.920Z,22.46
2024-04-30T09:16:48.550Z,22.77
2024-04-30T09:19:28.498Z,23.04
2024-04-30T09:22:06.004Z,22.31
2024-04-30T09:24:32.835Z,22.76
2024-04-30T09:26:59.302Z,23.04
2024-04-30T09:29:37.491Z,22.85
2024-04-30T09:32:05.535Z,22.67
2024-04-30T09:34:39.440Z,22.83
2024-04-30T09:37:17.743Z,22.49
2024-04-30T09:39:47.778Z,21.88
2024-04-30T09:42:15.670Z,21.35
2024-04-30T09:44:42.929Z,21.28
2024-04-30T09:47:10.247Z,21.18
2024-04-30T09:49:37.461Z,21.19
2024-04-30T09:52:04.286Z,20.94
2024-04-30T09:54:34.473Z,20.80
2024-04-30T09:57:04.092Z,20.70
2024-04-30T09:59:30.692Z,20.49
2024-04-30T10:01:59.619Z,20.45
2024-04-30T10:04:28.026Z,20.50
2024-04-30T10:06:58.086Z,20.67
2024-04-30T10:09:24.639Z,20.86
2024-04-30T10:11:51.118Z,20.81
2024-04-30T10:14:31.284Z,20.74
2024-04-30T10:17:01.720Z,20.74
2024-04-30T10:19:28.896Z,20.72
2024-04-30T10:21:55.448Z,20.78
2024-04-30T10:24:23.088Z,20.93
2024-04-30T10:26:51.445Z,21.05
2024-04-30T10:29:18.433Z,21.07
2024-04-30T10:31:48.919Z,21.16
2024-04-30T10:34:15.928Z,21.25
2024-04-30T10:36:46.938Z,21.17
2024-04-30T10:39:24.096Z,21.25
2024-04-30T10:41:50.569Z,21.15
2024-04-30T10:44:17.299Z,21.14
2024-04-30T10:46:44.385Z,21.12
2024-04-30T10:49:13.154Z,21.08
2024-04-30T10:51:39.649Z,21.13
2024-04-30T10:54:06.364Z,21.18
2024-04-30T10:56:32.835Z,21.06
2024-04-30T10:59:00.709Z,21.22
2024-04-30T11:01:28.384Z,21.09
2024-04-30T11:04:10.279Z,21.08
2024-04-30T11:06:49.355Z,21.10
2024-04-30T11:09:16.648Z,21.00
2024-04-30T11:11:48.465Z,21.11
2024-04-30T11:14:18.644Z,21.17
2024-04-30T11:16:48.619Z,21.15
2024-04-30T11:19:15.859Z,21.21
2024-04-30T11:21:42.432Z,21.31
2024-04-30T11:24:10.545Z,21.40
2024-04-30T11:26:37.335Z,21.45
2024-04-30T11:29:16.345Z,21.43
2024-04-30T11:31:50.682Z,21.45
2024-04-30T11:34:17.241Z,21.43
2024-04-30T11:36:43.847Z,21.45
2024-04-30T11:39:13.787Z,21.41
2024-04-30T11:41:43.604Z,21.52
2024-04-30T11:44:14.998Z,21.56
2024-04-30T11:46:41.518Z,21.57
2024-04-30T11:49:08.062Z,21.71
2024-04-30T11:51:34.539Z,21.68
2024-04-30T11:54:01.013Z,21.54
2024-04-30T11:56:30.574Z,21.60
2024-04-30T11:58:57.128Z,21.60
2024-04-30T12:01:23.668Z,21.60
2024-04-30T12:03:50.760Z,21.60
2024-04-30T12:06:17.353Z,21.73
2024-04-30T12:08:43.903Z,21.83
2024-04-30T12:11:10.676Z,21.91
2024-04-30T12:13:40.617Z,21.79
2024-04-30T12:16:07.375Z,21.77
2024-04-30T12:18:33.958Z,21.85
2024-04-30T12:21:01.064Z,21.97
2024-04-30T12:23:27.685Z,21.96
2024-04-30T12:25:55.462Z,22.02
2024-04-30T12:28:22.065Z,22.05
2024-04-30T12:30:48.534Z,22.08
2024-04-30T12:33:16.930Z,22.14
2024-04-30T12:35:46.324Z,22.25
2024-04-30T12:38:14.399Z,22.20
2024-04-30T12:40:41.776Z,22.30
2024-04-30T12:43:08.371Z,22.42
2024-04-30T12:45:34.898Z,22.53
2024-04-30T12:48:01.425Z,22.47
2024-04-30T12:50:27.922Z,22.26
2024-04-30T12:52:54.446Z,22.18
2024-04-30T12:55:21.007Z,22.15
2024-04-30T12:57:47.499Z,22.22
2024-04-30T13:00:15.412Z,22.30
2024-04-30T13:02:41.947Z,22.26
2024-04-30T13:05:08.465Z,22.22
2024-04-30T13:07:35.008Z,22.32
2024-04-30T13:10:01.568Z,22.30
2024-04-30T13:12:28.145Z,22.30
2024-04-30T13:14:54.647Z,22.25
2024-04-30T13:17:21.158Z,22.45
2024-04-30T13:19:47.715Z,22.55
2024-04-30T13:22:14.231Z,22.59
2024-04-30T13:24:40.701Z,22.48
2024-04-30T13:27:07.203Z,22.58
2024-04-30T13:29:34.005Z,22.53
2024-04-30T13:32:00.680Z,22.52
2024-04-30T13:34:31.503Z,22.47
2024-04-30T13:36:58.055Z,22.38
2024-04-30T13:39:27.281Z,22.43
2024-04-30T13:41:53.969Z,22.38
2024-04-30T13:44:20.432Z,22.43
2024-04-30T13:46:46.903Z,22.34
2024-04-30T13:49:13.454Z,22.39
2024-04-30T13:51:40.025Z,22.59
2024-04-30T13:54:06.660Z,22.66
2024-04-30T13:56:33.242Z,22.71
2024-04-30T13:58:59.694Z,22.70
2024-04-30T14:01:26.229Z,22.67
2024-04-30T14:03:52.792Z,22.60
2024-04-30T14:06:22.269Z,22.66
2024-04-30T14:08:48.712Z,22.71
2024-04-30T14:11:16.350Z,22.61
2024-04-30T14:13:43.030Z,22.62
2024-04-30T14:16:09.676Z,22.64
2024-04-30T14:18:36.181Z,22.64
2024-04-30T14:21:02.664Z,22.61
2024-04-30T14:23:29.437Z,22.57
2024-04-30T14:25:57.164Z,22.50
2024-04-30T14:28:25.338Z,22.40
2024-04-30T14:30:52.566Z,22.36
2024-04-30T14:33:19.186Z,22.42
2024-04-30T14:36:04.178Z,22.35
2024-04-30T14:38:30.635Z,22.32
2024-04-30T14:40:57.106Z,22.39
2024-04-30T14:43:23.652Z,22.43
2024-04-30T14:45:50.136Z,22.47
2024-04-30T14:48:17.185Z,22.41
2024-04-30T14:50:43.758Z,22.46
2024-04-30T14:53:10.214Z,22.46
2024-04-30T14:55:36.744Z,22.39
2024-04-30T14:58:03.253Z,22.45
2024-04-30T15:00:29.758Z,22.44
2024-04-30T15:02:56.225Z,22.50
2024-04-30T15:05:22.700Z,22.46
2024-04-30T15:07:49.260Z,22.43
2024-04-30T15:10:15.849Z,22.52
2024-04-30T15:12:42.362Z,22.51
2024-04-30T15:15:08.943Z,22.47
2024-04-30T15:17:35.592Z,22.45
2024-04-30T15:20:02.168Z,22.38
2024-04-30T15:22:28.697Z,22.33
2024-04-30T15:24:55.161Z,22.37
2024-04-30T15:27:21.637Z,22.36
2024-04-30T15:29:48.089Z,22.24
2024-04-30T15:32:14.596Z,22.28
2024-04-30T15:34:42.012Z,22.25
2024-04-30T15:37:08.758Z,22.19
2024-04-30T15:39:35.384Z,22.16
2024-04-30T15:42:01.860Z,22.28
2024-04-30T15:44:28.322Z,22.23
2024-04-30T15:46:54.804Z,22.21
2024-04-30T15:49:21.449Z,22.23
2024-04-30T15:51:48.035Z,22.22
2024-04-30T15:54:14.681Z,22.11
2024-04-30T15:56:50.239Z,22.15
2024-04-30T15:59:20.997Z,22.13
2024-04-30T16:01:47.510Z,22.14
2024-04-30T16:04:14.914Z,22.14
2024-04-30T16:06:42.156Z,22.14
2024-04-30T16:09:08.621Z,22.14
2024-04-30T16:11:35.115Z,22.13
2024-04-30T16:14:01.596Z,22.26
2024-04-30T16:16:28.171Z,22.40
2024-04-30T16:18:54.664Z,22.41
2024-04-30T16:21:21.133Z,22.47
2024-04-30T16:23:47.572Z,22.41
2024-04-30T16:28:44.318Z,22.57
2024-04-30T16:31:11.471Z,22.53
2024-04-30T16:33:38.353Z,22.43
2024-04-30T16:36:05.448Z,22.35
2024-04-30T16:38:31.952Z,22.23
2024-04-30T16:40:58.383Z,22.27
2024-04-30T16:43:24.906Z,22.28
2024-04-30T16:45:51.371Z,22.29
2024-04-30T16:48:18.007Z,22.15
2024-04-30T16:50:44.590Z,22.07
2024-04-30T16:53:11.047Z,21.97
2024-04-30T16:55:37.534Z,21.98
2024-04-30T16:58:05.533Z,21.84
2024-04-30T17:00:32.120Z,21.72
2024-04-30T17:02:59.319Z,21.63
2024-04-30T17:05:27.212Z,21.56
2024-04-30T17:07:53.648Z,21.51
2024-04-30T17:10:20.165Z,21.42
2024-04-30T17:12:46.753Z,21.41
2024-04-30T17:15:13.279Z,21.44
2024-04-30T17:17:39.802Z,21.49
2024-04-30T17:20:07.029Z,21.46
2024-04-30T17:22:34.133Z,21.48
2024-04-30T17:25:00.716Z,21.39
2024-04-30T17:27:28.502Z,21.35
2024-04-30T17:29:55.343Z,21.27
2024-04-30T17:32:22.747Z,21.15
2024-04-30T17:34:49.232Z,20.99
2024-04-30T17:37:15.864Z,20.96
2024-04-30T17:39:42.320Z,20.78
2024-04-30T17:42:10.702Z,20.66
2024-04-30T17:44:37.776Z,20.48
2024-04-30T17:47:04.601Z,20.27
2024-04-30T17:49:31.197Z,20.14
2024-04-30T17:51:57.674Z,20.02
2024-04-30T17:54:24.282Z,19.89
2024-04-30T17:56:50.763Z,19.77
2024-04-30T17:59:17.231Z,19.63
2024-04-30T18:01:44.896Z,19.51
2024-04-30T18:06:39.363Z,19.25
2024-04-30T18:09:06.635Z,19.06
2024-04-30T18:11:33.468Z,18.95
2024-04-30T18:14:00.253Z,18.81
2024-04-30T18:16:27.297Z,18.68
2024-04-30T18:18:54.814Z,18.56
2024-04-30T18:21:23.062Z,18.48
2024-04-30T18:23:49.593Z,18.34
2024-04-30T18:26:16.142Z,18.26
2024-04-30T18:28:46.833Z,18.21
2024-04-30T18:31:16.951Z,18.09
2024-04-30T18:33:43.700Z,17.98
2024-04-30T18:36:12.189Z,17.80
2024-04-30T18:38:43.305Z,17.73
2024-04-30T18:41:17.433Z,17.60
2024-04-30T18:43:51.107Z,17.45
2024-04-30T18:46:17.567Z,17.31
2024-04-30T18:48:46.627Z,17.27
2024-04-30T18:51:13.803Z,17.10
2024-04-30T18:53:43.447Z,17.03
2024-04-30T18:56:16.489Z,16.98
2024-04-30T18:58:43.739Z,16.91
2024-04-30T19:01:10.398Z,16.77
2024-04-30T19:03:37.075Z,16.66
2024-04-30T19:06:11.054Z,16.63
2024-04-30T19:08:37.811Z,16.56
2024-04-30T19:11:06.223Z,16.48
2024-04-30T19:13:33.873Z,16.44
2024-04-30T19:16:01.516Z,16.45
2024-04-30T19:18:28.140Z,16.42
2024-04-30T19:20:54.941Z,16.39
2024-04-30T19:23:29.378Z,16.30
2024-04-30T19:25:55.841Z,16.35
2024-04-30T19:28:23.231Z,16.29
2024-04-30T19:30:50.306Z,16.23
2024-04-30T19:33:17.601Z,16.27
2024-04-30T19:35:44.172Z,16.14
2024-04-30T19:38:10.815Z,16.05
2024-04-30T19:40:37.783Z,16.01
2024-04-30T19:43:05.594Z,15.96
2024-04-30T19:45:32.505Z,16.01
2024-04-30T19:47:59.018Z,16.01
2024-04-30T19:50:25.551Z,15.88
2024-04-30T19:52:52.051Z,15.82
2024-04-30T19:55:18.517Z,15.82
2024-04-30T19:57:45.431Z,15.84
2024-04-30T20:00:12.219Z,15.85
2024-04-30T20:02:40.898Z,15.78
2024-04-30T20:05:08.920Z,15.70
2024-04-30T20:07:35.703Z,15.71
2024-04-30T20:10:02.235Z,15.75
2024-04-30T20:12:28.828Z,15.77
2024-04-30T20:14:58.337Z,15.76
2024-04-30T20:17:25.197Z,15.70
2024-04-30T20:19:51.684Z,15.73
2024-04-30T20:22:18.155Z,15.74
2024-04-30T20:24:44.651Z,15.72
2024-04-30T20:27:11.152Z,15.68
2024-04-30T20:29:37.639Z,15.71
2024-04-30T20:32:05.049Z,15.68
2024-04-30T20:34:31.661Z,15.82
2024-04-30T20:36:58.201Z,15.74
2024-04-30T20:39:24.894Z,15.71
2024-04-30T20:41:51.404Z,15.74
2024-04-30T20:44:17.846Z,15.73
2024-04-30T20:46:44.303Z,15.69
2024-04-30T20:49:10.835Z,15.58
2024-04-30T20:51:42.897Z,15.63
2024-04-30T20:54:09.742Z,15.56
2024-04-30T20:56:36.278Z,15.55
2024-04-30T20:59:02.749Z,15.52
2024-04-30T21:01:29.348Z,15.50
2024-04-30T21:03:56.037Z,15.55
2024-04-30T21:06:22.561Z,15.55
2024-04-30T21:08:49.034Z,15.49
2024-04-30T21:11:15.567Z,15.47
2024-04-30T21:13:42.584Z,15.44
2024-04-30T21:16:09.090Z,15.44
2024-04-30T21:18:36.711Z,15.35
2024-04-30T21:21:03.970Z,15.37
2024-04-30T21:23:30.524Z,15.33
2024-04-30T21:25:57.110Z,15.30
2024-04-30T21:28:23.632Z,15.31
2024-04-30T21:30:51.636Z,15.19
2024-04-30T21:33:20.877Z,15.30
2024-04-30T21:35:47.887Z,15.14
2024-04-30T21:38:14.659Z,15.02
2024-04-30T21:40:41.137Z,14.98
2024-04-30T21:43:07.627Z,14.94
2024-04-30T21:45:34.156Z,14.93
2024-04-30T21:48:00.760Z,14.87
2024-04-30T21:50:27.235Z,14.76
2024-04-30T21:52:53.709Z,14.68
2024-04-30T21:55:20.166Z,14.63
2024-04-30T21:57:46.667Z,14.55
2024-04-30T22:00:14.422Z,14.53
2024-04-30T22:02:41.652Z,14.46
2024-04-30T22:05:08.206Z,14.40
2024-04-30T22:07:34.707Z,14.35
2024-04-30T22:10:01.980Z,14.21
2024-04-30T22:12:28.548Z,14.23
2024-04-30T22:14:55.317Z,14.21
2024-04-30T22:17:21.800Z,14.18
2024-04-30T22:19:48.274Z,14.16
2024-04-30T22:22:14.715Z,14.09
2024-04-30T22:24:41.234Z,14.08
2024-04-30T22:27:07.802Z,14.00
2024-04-30T22:29:34.257Z,13.94
2024-04-30T22:32:00.817Z,13.89
2024-04-30T22:34:27.371Z,13.95
2024-04-30T22:36:56.966Z,14.05
2024-04-30T22:39:24.252Z,13.97
2024-04-30T22:41:50.737Z,13.83
2024-04-30T22:44:17.226Z,13.80
2024-04-30T22:46:43.676Z,13.78
2024-04-30T22:49:10.195Z,13.85
2024-04-30T22:51:36.715Z,13.78
2024-04-30T22:54:03.183Z,13.78
2024-04-30T22:56:32.991Z,13.72
2024-04-30T22:59:00.918Z,13.83
2024-04-30T23:01:27.523Z,13.70
2024-04-30T23:03:54.119Z,13.60
2024-04-30T23:06:20.609Z,13.74
2024-04-30T23:08:47.106Z,13.70
2024-04-30T23:11:13.646Z,13.53
2024-04-30T23:13:40.161Z,13.49
2024-04-30T23:16:06.941Z,13.45
2024-04-30T23:18:33.586Z,13.48
2024-04-30T23:21:00.122Z,13.42
2024-04-30T23:23:26.585Z,13.34
2024-04-30T23:25:53.042Z,13.38
2024-04-30T23:28:19.496Z,13.37
2024-04-30T23:30:46.039Z,13.40
2024-04-30T23:33:12.515Z,13.28
2024-04-30T23:35:38.987Z,13.25
2024-04-30T23:38:05.435Z,13.24
2024-04-30T23:40:31.935Z,13.25
2024-04-30T23:42:58.431Z,13.19
2024-04-30T23:45:24.927Z,13.18
2024-04-30T23:47:51.845Z,13.18
2024-04-30T23:50:18.358Z,13.13
2024-04-30T23:52:44.822Z,13.19
2024-04-30T23:55:11.289Z,13.21
2024-04-30T23:57:37.877Z,13.17
